BAW5563 EDDF-EGLL
Flight info
| Callsign | BAW5563 |
|---|---|
| Flight time | 1h 28m |
| Altitude | 34000 |
| Route | SOBRA2L/18 SOBRA Y180 BITBU Y181 DEMUL M624 BUB L608 SASKI DCT XAMAN L980 LOGAN |
| Aircraft | A320/M-SDE3FGHIRWY/LB1 |
Departure
| Time | 2026-05-06 18:32 |
|---|---|
| Airport | Frankfurt Main Airport (EDDF) |
Arrival
| Time | 2026-05-06 20:00 |
|---|---|
| Airport | London Heathrow Airport (EGLL) |
| Time | Latitude | Longitude | Altitude | Speed | Heading |
|---|---|---|---|---|---|
| 2026-05-06 18:19 | 50.03861 | 8.54791 | 343 ft | 0 kts | 160° |
| 2026-05-06 18:23 | 50.03843 | 8.54802 | 342 ft | 5 kts | 159° |
| 2026-05-06 18:24 | 50.03802 | 8.54823 | 342 ft | 7 kts | 174° |
| 2026-05-06 18:24 | 50.03796 | 8.54823 | 342 ft | 7 kts | 183° |
| 2026-05-06 18:24 | 50.03765 | 8.54768 | 340 ft | 10 kts | 250° |
| 2026-05-06 18:24 | 50.03738 | 8.54654 | 338 ft | 13 kts | 251° |
| 2026-05-06 18:25 | 50.03709 | 8.54522 | 337 ft | 14 kts | 249° |
| 2026-05-06 18:25 | 50.03676 | 8.54384 | 336 ft | 15 kts | 249° |
| 2026-05-06 18:25 | 50.03637 | 8.54223 | 338 ft | 14 kts | 251° |
| 2026-05-06 18:25 | 50.03606 | 8.54086 | 340 ft | 13 kts | 248° |
| 2026-05-06 18:26 | 50.03572 | 8.53957 | 340 ft | 14 kts | 249° |
| 2026-05-06 18:26 | 50.03540 | 8.53819 | 341 ft | 13 kts | 249° |
| 2026-05-06 18:26 | 50.03509 | 8.53693 | 342 ft | 13 kts | 251° |
| 2026-05-06 18:26 | 50.03484 | 8.53577 | 342 ft | 13 kts | 252° |
| 2026-05-06 18:27 | 50.03453 | 8.53435 | 340 ft | 16 kts | 252° |
| 2026-05-06 18:27 | 50.03413 | 8.53280 | 338 ft | 17 kts | 248° |
| 2026-05-06 18:27 | 50.03364 | 8.53078 | 335 ft | 18 kts | 252° |
| 2026-05-06 18:27 | 50.03322 | 8.52893 | 336 ft | 15 kts | 249° |
| 2026-05-06 18:28 | 50.03311 | 8.52849 | 336 ft | 1 kts | 249° |
| 2026-05-06 18:28 | 50.03306 | 8.52831 | 336 ft | 5 kts | 248° |
| 2026-05-06 18:28 | 50.03287 | 8.52763 | 335 ft | 0 kts | 248° |
| 2026-05-06 18:28 | 50.03287 | 8.52761 | 335 ft | 0 kts | 248° |
| 2026-05-06 18:30 | 50.03283 | 8.52743 | 335 ft | 7 kts | 248° |
| 2026-05-06 18:31 | 50.03252 | 8.52636 | 335 ft | 16 kts | 228° |
| 2026-05-06 18:31 | 50.03115 | 8.52597 | 332 ft | 44 kts | 182° |
| 2026-05-06 18:31 | 50.02671 | 8.52573 | 327 ft | 111 kts | 178° |
| 2026-05-06 18:31 | 50.01631 | 8.52702 | 356 ft | 172 kts | 166° |
| 2026-05-06 18:32 | 50.00412 | 8.52870 | 983 ft | 182 kts | 180° |
| 2026-05-06 18:32 | 49.97667 | 8.53003 | 2035 ft | 234 kts | 180° |
| 2026-05-06 18:32 | 49.96945 | 8.53040 | 2213 ft | 251 kts | 180° |
| 2026-05-06 18:33 | 49.95060 | 8.53134 | 2732 ft | 235 kts | 180° |
| 2026-05-06 18:33 | 49.93822 | 8.53201 | 3117 ft | 228 kts | 180° |
| 2026-05-06 18:33 | 49.92694 | 8.53260 | 3479 ft | 228 kts | 180° |
| 2026-05-06 18:33 | 49.91335 | 8.53332 | 3860 ft | 229 kts | 180° |
| 2026-05-06 18:34 | 49.88290 | 8.53477 | 4005 ft | 228 kts | 183° |
| 2026-05-06 18:34 | 49.86337 | 8.53015 | 4013 ft | 225 kts | 200° |
| 2026-05-06 18:35 | 49.85607 | 8.52641 | 4016 ft | 224 kts | 202° |
| 2026-05-06 18:35 | 49.85327 | 8.52486 | 4016 ft | 224 kts | 203° |
| 2026-05-06 18:35 | 49.83877 | 8.51642 | 4015 ft | 224 kts | 204° |
| 2026-05-06 18:36 | 49.82549 | 8.50859 | 4015 ft | 224 kts | 204° |
| 2026-05-06 18:37 | 49.78146 | 8.48342 | 4014 ft | 222 kts | 204° |
| 2026-05-06 18:37 | 49.77388 | 8.47911 | 4016 ft | 222 kts | 205° |
| 2026-05-06 18:37 | 49.75585 | 8.44901 | 4010 ft | 211 kts | 262° |
| 2026-05-06 18:38 | 49.75580 | 8.43083 | 4018 ft | 210 kts | 283° |
| 2026-05-06 18:38 | 49.75978 | 8.40708 | 4023 ft | 210 kts | 286° |
| 2026-05-06 18:38 | 49.76235 | 8.39262 | 4042 ft | 213 kts | 286° |
| 2026-05-06 18:39 | 49.76989 | 8.34876 | 5432 ft | 215 kts | 283° |
| 2026-05-06 18:39 | 49.77000 | 8.34809 | 5461 ft | 215 kts | 283° |
| 2026-05-06 18:40 | 49.77604 | 8.31122 | 6836 ft | 218 kts | 283° |
| 2026-05-06 18:40 | 49.77886 | 8.29369 | 7441 ft | 221 kts | 283° |
| 2026-05-06 18:40 | 49.78160 | 8.27657 | 8011 ft | 223 kts | 283° |
| 2026-05-06 18:40 | 49.78396 | 8.26181 | 8483 ft | 226 kts | 283° |
| 2026-05-06 18:41 | 49.78709 | 8.24233 | 9097 ft | 228 kts | 283° |
| 2026-05-06 18:41 | 49.78994 | 8.22447 | 9638 ft | 230 kts | 283° |
| 2026-05-06 18:41 | 49.79328 | 8.20367 | 10156 ft | 237 kts | 283° |
| 2026-05-06 18:41 | 49.79639 | 8.18420 | 10454 ft | 250 kts | 283° |
| 2026-05-06 18:42 | 49.79879 | 8.16921 | 10657 ft | 259 kts | 283° |
| 2026-05-06 18:42 | 49.80165 | 8.15138 | 10882 ft | 271 kts | 283° |
| 2026-05-06 18:42 | 49.80566 | 8.12642 | 11230 ft | 283 kts | 284° |
| 2026-05-06 18:42 | 49.80919 | 8.10442 | 11673 ft | 288 kts | 284° |
| 2026-05-06 18:43 | 49.81239 | 8.08440 | 12116 ft | 291 kts | 284° |
| 2026-05-06 18:43 | 49.81604 | 8.06151 | 12522 ft | 294 kts | 284° |
| 2026-05-06 18:43 | 49.82024 | 8.03510 | 12782 ft | 295 kts | 284° |
| 2026-05-06 18:43 | 49.82427 | 8.00969 | 12836 ft | 296 kts | 284° |
| 2026-05-06 18:44 | 49.82890 | 7.98039 | 12833 ft | 295 kts | 284° |
| 2026-05-06 18:44 | 49.83316 | 7.95338 | 12837 ft | 295 kts | 284° |
| 2026-05-06 18:44 | 49.83732 | 7.92688 | 12841 ft | 295 kts | 284° |
| 2026-05-06 18:44 | 49.84129 | 7.90159 | 12836 ft | 295 kts | 284° |
| 2026-05-06 18:45 | 49.84618 | 7.87033 | 12834 ft | 295 kts | 284° |
| 2026-05-06 18:45 | 49.85135 | 7.83722 | 12840 ft | 295 kts | 284° |
| 2026-05-06 18:45 | 49.85571 | 7.80925 | 12836 ft | 295 kts | 284° |
| 2026-05-06 18:45 | 49.86011 | 7.78097 | 12835 ft | 295 kts | 284° |
| 2026-05-06 18:46 | 49.86414 | 7.75517 | 12832 ft | 295 kts | 284° |
| 2026-05-06 18:46 | 49.86827 | 7.72875 | 12826 ft | 295 kts | 284° |
| 2026-05-06 18:46 | 49.87255 | 7.70130 | 12831 ft | 295 kts | 284° |
| 2026-05-06 18:46 | 49.87642 | 7.67641 | 12828 ft | 295 kts | 284° |
| 2026-05-06 18:47 | 49.87973 | 7.65503 | 12827 ft | 295 kts | 284° |
| 2026-05-06 18:47 | 49.88457 | 7.62370 | 12828 ft | 295 kts | 284° |
| 2026-05-06 18:47 | 49.88960 | 7.59114 | 12835 ft | 295 kts | 284° |
| 2026-05-06 18:47 | 49.89392 | 7.56313 | 12835 ft | 295 kts | 284° |
| 2026-05-06 18:48 | 49.89818 | 7.53542 | 12836 ft | 295 kts | 284° |
| 2026-05-06 18:48 | 49.90317 | 7.50296 | 12831 ft | 295 kts | 284° |
| 2026-05-06 18:48 | 49.90838 | 7.46903 | 12821 ft | 295 kts | 284° |
| 2026-05-06 18:48 | 49.91299 | 7.43893 | 12835 ft | 295 kts | 284° |
| 2026-05-06 18:49 | 49.91742 | 7.40998 | 12831 ft | 295 kts | 284° |
| 2026-05-06 18:49 | 49.92180 | 7.38122 | 12836 ft | 295 kts | 284° |
| 2026-05-06 18:49 | 49.92686 | 7.34804 | 12839 ft | 295 kts | 283° |
| 2026-05-06 18:49 | 49.93001 | 7.32727 | 12841 ft | 295 kts | 283° |
| 2026-05-06 18:50 | 49.93329 | 7.30566 | 12842 ft | 295 kts | 283° |
| 2026-05-06 18:50 | 49.93683 | 7.28228 | 12844 ft | 295 kts | 283° |
| 2026-05-06 18:50 | 49.94059 | 7.25742 | 12843 ft | 295 kts | 283° |
| 2026-05-06 18:50 | 49.94400 | 7.23483 | 12843 ft | 295 kts | 283° |
| 2026-05-06 18:51 | 49.94675 | 7.21660 | 12845 ft | 295 kts | 283° |
| 2026-05-06 18:51 | 49.94970 | 7.19703 | 12846 ft | 295 kts | 283° |
| 2026-05-06 18:51 | 49.95238 | 7.17921 | 12849 ft | 295 kts | 283° |
| 2026-05-06 18:51 | 49.95553 | 7.15828 | 12851 ft | 295 kts | 283° |
| 2026-05-06 18:52 | 49.95821 | 7.14044 | 12853 ft | 295 kts | 283° |
| 2026-05-06 18:52 | 49.96184 | 7.11618 | 12855 ft | 295 kts | 283° |
| 2026-05-06 18:52 | 49.96491 | 7.09577 | 12856 ft | 295 kts | 283° |
| 2026-05-06 18:52 | 49.96808 | 7.07451 | 12855 ft | 295 kts | 283° |
| 2026-05-06 18:53 | 49.97111 | 7.05418 | 12854 ft | 295 kts | 283° |
| 2026-05-06 18:53 | 49.97408 | 7.03427 | 12857 ft | 295 kts | 283° |
| 2026-05-06 18:53 | 49.97731 | 7.01256 | 12860 ft | 296 kts | 283° |
| 2026-05-06 18:53 | 49.98189 | 6.98170 | 12863 ft | 295 kts | 283° |
| 2026-05-06 18:54 | 49.98542 | 6.95792 | 12862 ft | 295 kts | 283° |
| 2026-05-06 18:54 | 49.98881 | 6.93497 | 12860 ft | 295 kts | 282° |
| 2026-05-06 18:54 | 49.99170 | 6.90667 | 12862 ft | 295 kts | 276° |
| 2026-05-06 18:54 | 49.99261 | 6.88028 | 12863 ft | 295 kts | 270° |
| 2026-05-06 18:55 | 49.99211 | 6.85258 | 12863 ft | 295 kts | 268° |
| 2026-05-06 18:55 | 49.99118 | 6.82266 | 12864 ft | 295 kts | 268° |
| 2026-05-06 18:55 | 49.99019 | 6.79266 | 12865 ft | 295 kts | 268° |
| 2026-05-06 18:55 | 49.98933 | 6.76629 | 12865 ft | 295 kts | 268° |
| 2026-05-06 18:56 | 49.98827 | 6.73268 | 12865 ft | 295 kts | 268° |
| 2026-05-06 18:56 | 49.98734 | 6.70258 | 12865 ft | 295 kts | 268° |
| 2026-05-06 18:56 | 49.98637 | 6.67123 | 12864 ft | 295 kts | 268° |
| 2026-05-06 18:56 | 49.98534 | 6.63806 | 12862 ft | 295 kts | 268° |
| 2026-05-06 18:57 | 49.98416 | 6.60029 | 12860 ft | 295 kts | 268° |
| 2026-05-06 18:57 | 49.98312 | 6.56647 | 12860 ft | 295 kts | 268° |
| 2026-05-06 18:57 | 49.98212 | 6.53472 | 12888 ft | 298 kts | 268° |
| 2026-05-06 18:57 | 49.98111 | 6.50242 | 13336 ft | 303 kts | 269° |
| 2026-05-06 18:58 | 49.97990 | 6.46393 | 14266 ft | 302 kts | 268° |
| 2026-05-06 18:58 | 49.97884 | 6.43023 | 14957 ft | 304 kts | 268° |
| 2026-05-06 18:58 | 49.97787 | 6.40036 | 15499 ft | 307 kts | 268° |
| 2026-05-06 18:58 | 49.97676 | 6.36597 | 16118 ft | 310 kts | 268° |
| 2026-05-06 18:59 | 49.97567 | 6.33306 | 16701 ft | 313 kts | 266° |
| 2026-05-06 18:59 | 49.97471 | 6.30439 | 17194 ft | 315 kts | 266° |
| 2026-05-06 18:59 | 49.97369 | 6.26943 | 17763 ft | 318 kts | 270° |
| 2026-05-06 18:59 | 49.97776 | 6.23776 | 18245 ft | 324 kts | 295° |
| 2026-05-06 19:00 | 49.99399 | 6.20503 | 18920 ft | 328 kts | 312° |
| 2026-05-06 19:00 | 50.00930 | 6.18015 | 19456 ft | 331 kts | 312° |
| 2026-05-06 19:00 | 50.02460 | 6.15489 | 19994 ft | 333 kts | 311° |
| 2026-05-06 19:00 | 50.04074 | 6.13011 | 20521 ft | 337 kts | 322° |
| 2026-05-06 19:01 | 50.06201 | 6.11052 | 21093 ft | 340 kts | 331° |
| 2026-05-06 19:01 | 50.08305 | 6.09447 | 21605 ft | 343 kts | 333° |
| 2026-05-06 19:01 | 50.10252 | 6.08014 | 22059 ft | 345 kts | 333° |
| 2026-05-06 19:01 | 50.11734 | 6.06932 | 22403 ft | 346 kts | 333° |
| 2026-05-06 19:02 | 50.13653 | 6.05536 | 22849 ft | 348 kts | 333° |
| 2026-05-06 19:02 | 50.15281 | 6.04359 | 23225 ft | 349 kts | 333° |
| 2026-05-06 19:02 | 50.17171 | 6.02961 | 23638 ft | 350 kts | 329° |
| 2026-05-06 19:02 | 50.19007 | 6.00701 | 23867 ft | 347 kts | 309° |
| 2026-05-06 19:03 | 50.20351 | 5.98031 | 23869 ft | 345 kts | 304° |
| 2026-05-06 19:03 | 50.21870 | 5.94708 | 23862 ft | 344 kts | 304° |
| 2026-05-06 19:03 | 50.23181 | 5.91871 | 23860 ft | 345 kts | 304° |
| 2026-05-06 19:03 | 50.24465 | 5.89159 | 23859 ft | 346 kts | 305° |
| 2026-05-06 19:04 | 50.25651 | 5.86697 | 23856 ft | 347 kts | 305° |
| 2026-05-06 19:04 | 50.27179 | 5.83568 | 23856 ft | 348 kts | 306° |
| 2026-05-06 19:04 | 50.28453 | 5.80971 | 23857 ft | 349 kts | 306° |
| 2026-05-06 19:04 | 50.29730 | 5.78384 | 23857 ft | 349 kts | 306° |
| 2026-05-06 19:05 | 50.31107 | 5.75599 | 23862 ft | 359 kts | 306° |
| 2026-05-06 19:05 | 50.32781 | 5.72218 | 23866 ft | 375 kts | 307° |
| 2026-05-06 19:05 | 50.34135 | 5.69488 | 23879 ft | 386 kts | 307° |
| 2026-05-06 19:05 | 50.35410 | 5.66919 | 24018 ft | 392 kts | 307° |
| 2026-05-06 19:06 | 50.36826 | 5.64065 | 24162 ft | 400 kts | 307° |
| 2026-05-06 19:06 | 50.38082 | 5.61534 | 24296 ft | 405 kts | 307° |
| 2026-05-06 19:06 | 50.39479 | 5.58712 | 24526 ft | 409 kts | 307° |
| 2026-05-06 19:06 | 50.40657 | 5.56332 | 24779 ft | 411 kts | 307° |
| 2026-05-06 19:07 | 50.41715 | 5.54189 | 25014 ft | 412 kts | 307° |
| 2026-05-06 19:07 | 50.42793 | 5.52003 | 25248 ft | 414 kts | 307° |
| 2026-05-06 19:07 | 50.43881 | 5.49797 | 25475 ft | 415 kts | 307° |
| 2026-05-06 19:07 | 50.45119 | 5.47280 | 25726 ft | 417 kts | 307° |
| 2026-05-06 19:08 | 50.46511 | 5.44449 | 26002 ft | 419 kts | 307° |
| 2026-05-06 19:08 | 50.47562 | 5.42307 | 26206 ft | 420 kts | 307° |
| 2026-05-06 19:08 | 50.48635 | 5.40119 | 26408 ft | 422 kts | 307° |
| 2026-05-06 19:08 | 50.49760 | 5.37824 | 26612 ft | 424 kts | 307° |
| 2026-05-06 19:09 | 50.50937 | 5.35422 | 26825 ft | 425 kts | 307° |
| 2026-05-06 19:09 | 50.51900 | 5.33453 | 26998 ft | 427 kts | 307° |
| 2026-05-06 19:09 | 50.53145 | 5.30907 | 27217 ft | 428 kts | 307° |
| 2026-05-06 19:09 | 50.54139 | 5.28873 | 27390 ft | 430 kts | 306° |
| 2026-05-06 19:10 | 50.55446 | 5.26194 | 27609 ft | 431 kts | 307° |
| 2026-05-06 19:10 | 50.56893 | 5.23227 | 27842 ft | 433 kts | 307° |
| 2026-05-06 19:10 | 50.58100 | 5.20748 | 28035 ft | 435 kts | 307° |
| 2026-05-06 19:10 | 50.59798 | 5.17258 | 28282 ft | 437 kts | 307° |
| 2026-05-06 19:11 | 50.61258 | 5.14253 | 28824 ft | 431 kts | 307° |
| 2026-05-06 19:11 | 50.62591 | 5.11504 | 29316 ft | 427 kts | 307° |
| 2026-05-06 19:11 | 50.63885 | 5.08833 | 29801 ft | 422 kts | 307° |
| 2026-05-06 19:11 | 50.64901 | 5.06736 | 30185 ft | 418 kts | 307° |
| 2026-05-06 19:12 | 50.66231 | 5.03983 | 30694 ft | 413 kts | 307° |
| 2026-05-06 19:12 | 50.67377 | 5.01608 | 31135 ft | 408 kts | 307° |
| 2026-05-06 19:12 | 50.68749 | 4.98767 | 31621 ft | 403 kts | 307° |
| 2026-05-06 19:12 | 50.69899 | 4.96383 | 32034 ft | 397 kts | 307° |
| 2026-05-06 19:13 | 50.70764 | 4.94589 | 32350 ft | 393 kts | 307° |
| 2026-05-06 19:13 | 50.71728 | 4.92587 | 32706 ft | 389 kts | 307° |
| 2026-05-06 19:13 | 50.72745 | 4.90474 | 33086 ft | 383 kts | 307° |
| 2026-05-06 19:13 | 50.73843 | 4.88190 | 33468 ft | 378 kts | 306° |
| 2026-05-06 19:14 | 50.75223 | 4.85313 | 33769 ft | 376 kts | 306° |
| 2026-05-06 19:14 | 50.76313 | 4.82986 | 33898 ft | 377 kts | 303° |
| 2026-05-06 19:14 | 50.77454 | 4.80204 | 33921 ft | 383 kts | 301° |
| 2026-05-06 19:15 | 50.79555 | 4.74669 | 33925 ft | 396 kts | 300° |
| 2026-05-06 19:15 | 50.81750 | 4.68860 | 33929 ft | 408 kts | 300° |
| 2026-05-06 19:16 | 50.83568 | 4.64084 | 33934 ft | 418 kts | 301° |
| 2026-05-06 19:16 | 50.85787 | 4.58277 | 33933 ft | 428 kts | 301° |
| 2026-05-06 19:17 | 50.87830 | 4.52930 | 33929 ft | 437 kts | 301° |
| 2026-05-06 19:17 | 50.89962 | 4.47349 | 33938 ft | 445 kts | 301° |
| 2026-05-06 19:18 | 50.92667 | 4.40252 | 33931 ft | 447 kts | 301° |
| 2026-05-06 19:18 | 50.95189 | 4.33616 | 33935 ft | 447 kts | 300° |
| 2026-05-06 19:19 | 50.97476 | 4.27583 | 33934 ft | 447 kts | 300° |
| 2026-05-06 19:19 | 51.00178 | 4.20434 | 33937 ft | 446 kts | 300° |
| 2026-05-06 19:20 | 51.02438 | 4.14443 | 33934 ft | 446 kts | 300° |
| 2026-05-06 19:20 | 51.04915 | 4.07855 | 33932 ft | 446 kts | 300° |
| 2026-05-06 19:21 | 51.07186 | 4.01801 | 33938 ft | 445 kts | 300° |
| 2026-05-06 19:21 | 51.09256 | 3.96268 | 33940 ft | 445 kts | 300° |
| 2026-05-06 19:22 | 51.11471 | 3.90338 | 33943 ft | 445 kts | 300° |
| 2026-05-06 19:22 | 51.13724 | 3.84290 | 33945 ft | 445 kts | 300° |
| 2026-05-06 19:23 | 51.16172 | 3.77704 | 33945 ft | 444 kts | 300° |
| 2026-05-06 19:23 | 51.18714 | 3.70847 | 33945 ft | 444 kts | 300° |
| 2026-05-06 19:24 | 51.21439 | 3.63474 | 33941 ft | 444 kts | 300° |
| 2026-05-06 19:24 | 51.24175 | 3.56050 | 33940 ft | 444 kts | 300° |
| 2026-05-06 19:25 | 51.26698 | 3.49184 | 33938 ft | 444 kts | 300° |
| 2026-05-06 19:25 | 51.29055 | 3.42754 | 33950 ft | 444 kts | 300° |
| 2026-05-06 19:26 | 51.31916 | 3.34925 | 33953 ft | 444 kts | 300° |
| 2026-05-06 19:26 | 51.34812 | 3.26973 | 33951 ft | 444 kts | 300° |
| 2026-05-06 19:27 | 51.37855 | 3.18587 | 33952 ft | 444 kts | 300° |
| 2026-05-06 19:27 | 51.40677 | 3.10118 | 33956 ft | 443 kts | 295° |
| 2026-05-06 19:28 | 51.43403 | 2.99337 | 33959 ft | 443 kts | 290° |
| 2026-05-06 19:28 | 51.45605 | 2.89861 | 33958 ft | 443 kts | 290° |
| 2026-05-06 19:29 | 51.48070 | 2.79251 | 33958 ft | 443 kts | 290° |
| 2026-05-06 19:29 | 51.50734 | 2.67752 | 33970 ft | 442 kts | 290° |
| 2026-05-06 19:30 | 51.53247 | 2.58245 | 33971 ft | 442 kts | 298° |
| 2026-05-06 19:30 | 51.56891 | 2.49526 | 33974 ft | 443 kts | 309° |
| 2026-05-06 19:31 | 51.61480 | 2.42266 | 33970 ft | 444 kts | 321° |
| 2026-05-06 19:31 | 51.69759 | 2.32610 | 33970 ft | 443 kts | 323° |
| 2026-05-06 19:32 | 51.75241 | 2.25629 | 33960 ft | 442 kts | 309° |
| 2026-05-06 19:32 | 51.76600 | 2.22435 | 33970 ft | 441 kts | 297° |
| 2026-05-06 19:32 | 51.77522 | 2.18814 | 33977 ft | 440 kts | 285° |
| 2026-05-06 19:33 | 51.77980 | 2.14308 | 33979 ft | 440 kts | 271° |
| 2026-05-06 19:33 | 51.77775 | 2.08744 | 33995 ft | 439 kts | 264° |
| 2026-05-06 19:33 | 51.77106 | 1.98603 | 33990 ft | 439 kts | 264° |
| 2026-05-06 19:34 | 51.76389 | 1.87310 | 33987 ft | 439 kts | 265° |
| 2026-05-06 19:34 | 51.75789 | 1.77608 | 33985 ft | 439 kts | 265° |
| 2026-05-06 19:35 | 51.75087 | 1.66325 | 33984 ft | 439 kts | 265° |
| 2026-05-06 19:35 | 51.74591 | 1.58454 | 33985 ft | 439 kts | 265° |
| 2026-05-06 19:36 | 51.73832 | 1.46544 | 32963 ft | 438 kts | 264° |
| 2026-05-06 19:36 | 51.73457 | 1.40720 | 31652 ft | 446 kts | 264° |
| 2026-05-06 19:36 | 51.73070 | 1.34759 | 30367 ft | 450 kts | 264° |
| 2026-05-06 19:37 | 51.72707 | 1.29205 | 29204 ft | 452 kts | 264° |
| 2026-05-06 19:37 | 51.72375 | 1.24177 | 28409 ft | 447 kts | 264° |
| 2026-05-06 19:37 | 51.72047 | 1.19245 | 27718 ft | 441 kts | 264° |
| 2026-05-06 19:37 | 51.71688 | 1.13890 | 26933 ft | 436 kts | 264° |
| 2026-05-06 19:38 | 51.71256 | 1.07512 | 25976 ft | 430 kts | 264° |
| 2026-05-06 19:38 | 51.70890 | 1.02167 | 25189 ft | 425 kts | 264° |
| 2026-05-06 19:38 | 51.70514 | 0.96698 | 24374 ft | 420 kts | 264° |
| 2026-05-06 19:38 | 51.70071 | 0.90257 | 23403 ft | 415 kts | 264° |
| 2026-05-06 19:39 | 51.69753 | 0.85679 | 22730 ft | 411 kts | 264° |
| 2026-05-06 19:39 | 51.69445 | 0.81280 | 22097 ft | 407 kts | 264° |
| 2026-05-06 19:39 | 51.69113 | 0.76578 | 21431 ft | 403 kts | 264° |
| 2026-05-06 19:39 | 51.68809 | 0.72292 | 20812 ft | 400 kts | 264° |
| 2026-05-06 19:40 | 51.68551 | 0.68671 | 20284 ft | 397 kts | 264° |
| 2026-05-06 19:40 | 51.68291 | 0.65017 | 19770 ft | 394 kts | 265° |
| 2026-05-06 19:40 | 51.68007 | 0.61055 | 19217 ft | 391 kts | 265° |
| 2026-05-06 19:40 | 51.67716 | 0.57023 | 18653 ft | 388 kts | 265° |
| 2026-05-06 19:41 | 51.67485 | 0.53837 | 18207 ft | 386 kts | 265° |
| 2026-05-06 19:41 | 51.67260 | 0.50755 | 17775 ft | 384 kts | 265° |
| 2026-05-06 19:41 | 51.67030 | 0.47593 | 17355 ft | 381 kts | 265° |
| 2026-05-06 19:41 | 51.66763 | 0.43930 | 16841 ft | 379 kts | 265° |
| 2026-05-06 19:42 | 51.66392 | 0.38872 | 16119 ft | 375 kts | 265° |
| 2026-05-06 19:42 | 51.66076 | 0.34604 | 15505 ft | 373 kts | 264° |
| 2026-05-06 19:42 | 51.65871 | 0.31853 | 15188 ft | 369 kts | 264° |
| 2026-05-06 19:42 | 51.65655 | 0.28962 | 14724 ft | 368 kts | 264° |
| 2026-05-06 19:43 | 51.65429 | 0.25956 | 14252 ft | 367 kts | 264° |
| 2026-05-06 19:43 | 51.65216 | 0.23132 | 13835 ft | 366 kts | 264° |
| 2026-05-06 19:43 | 51.64975 | 0.19921 | 13330 ft | 366 kts | 264° |
| 2026-05-06 19:43 | 51.64718 | 0.16980 | 12841 ft | 365 kts | 262° |
| 2026-05-06 19:44 | 51.64365 | 0.14095 | 12373 ft | 365 kts | 258° |
| 2026-05-06 19:44 | 51.63936 | 0.11406 | 11941 ft | 365 kts | 256° |
| 2026-05-06 19:44 | 51.63391 | 0.08378 | 11453 ft | 364 kts | 255° |
| 2026-05-06 19:44 | 51.62851 | 0.05454 | 10977 ft | 363 kts | 255° |
| 2026-05-06 19:45 | 51.62378 | 0.02915 | 10565 ft | 362 kts | 255° |
| 2026-05-06 19:45 | 51.61894 | 0.00321 | 10232 ft | 359 kts | 255° |
| 2026-05-06 19:45 | 51.61505 | -0.01768 | 10063 ft | 353 kts | 255° |
| 2026-05-06 19:45 | 51.60879 | -0.05118 | 10001 ft | 337 kts | 255° |
| 2026-05-06 19:46 | 51.60479 | -0.07254 | 10002 ft | 326 kts | 255° |
| 2026-05-06 19:46 | 51.60092 | -0.09322 | 10004 ft | 316 kts | 255° |
| 2026-05-06 19:46 | 51.59707 | -0.11368 | 10002 ft | 306 kts | 255° |
| 2026-05-06 19:46 | 51.59285 | -0.13614 | 10000 ft | 295 kts | 255° |
| 2026-05-06 19:47 | 51.58816 | -0.16101 | 10001 ft | 286 kts | 255° |
| 2026-05-06 19:47 | 51.58376 | -0.18444 | 10002 ft | 286 kts | 255° |
| 2026-05-06 19:47 | 51.57837 | -0.21317 | 10004 ft | 286 kts | 255° |
| 2026-05-06 19:47 | 51.57423 | -0.23526 | 10005 ft | 286 kts | 255° |
| 2026-05-06 19:48 | 51.57061 | -0.25492 | 10005 ft | 286 kts | 257° |
| 2026-05-06 19:48 | 51.56869 | -0.27758 | 9994 ft | 283 kts | 273° |
| 2026-05-06 19:48 | 51.57137 | -0.31288 | 10007 ft | 283 kts | 281° |
| 2026-05-06 19:48 | 51.57512 | -0.34632 | 10005 ft | 283 kts | 281° |
| 2026-05-06 19:49 | 51.57811 | -0.37537 | 10006 ft | 283 kts | 280° |
| 2026-05-06 19:49 | 51.58062 | -0.40233 | 10006 ft | 283 kts | 279° |
| 2026-05-06 19:49 | 51.58331 | -0.43405 | 10005 ft | 283 kts | 279° |
| 2026-05-06 19:49 | 51.58604 | -0.46823 | 10005 ft | 283 kts | 279° |
| 2026-05-06 19:50 | 51.58796 | -0.49311 | 10007 ft | 283 kts | 279° |
| 2026-05-06 19:50 | 51.58978 | -0.51701 | 9950 ft | 279 kts | 278° |
| 2026-05-06 19:50 | 51.59152 | -0.54026 | 9687 ft | 279 kts | 278° |
| 2026-05-06 19:50 | 51.59366 | -0.56878 | 9359 ft | 279 kts | 278° |
| 2026-05-06 19:51 | 51.59640 | -0.60560 | 8898 ft | 278 kts | 278° |
| 2026-05-06 19:51 | 51.59813 | -0.63022 | 8468 ft | 275 kts | 276° |
| 2026-05-06 19:51 | 51.59875 | -0.65430 | 7940 ft | 276 kts | 270° |
| 2026-05-06 19:51 | 51.59779 | -0.68203 | 7338 ft | 275 kts | 266° |
| 2026-05-06 19:52 | 51.59620 | -0.70728 | 6791 ft | 273 kts | 262° |
| 2026-05-06 19:52 | 51.59074 | -0.73190 | 6160 ft | 275 kts | 235° |
| 2026-05-06 19:52 | 51.58011 | -0.74780 | 5629 ft | 275 kts | 208° |
| 2026-05-06 19:52 | 51.56896 | -0.75433 | 5286 ft | 272 kts | 188° |
| 2026-05-06 19:53 | 51.55217 | -0.75484 | 5034 ft | 261 kts | 176° |
| 2026-05-06 19:53 | 51.53861 | -0.75375 | 5000 ft | 243 kts | 176° |
| 2026-05-06 19:53 | 51.52850 | -0.75302 | 5005 ft | 240 kts | 176° |
| 2026-05-06 19:53 | 51.51667 | -0.75234 | 4936 ft | 235 kts | 177° |
| 2026-05-06 19:54 | 51.50389 | -0.75181 | 4677 ft | 230 kts | 176° |
| 2026-05-06 19:54 | 51.48823 | -0.74557 | 4284 ft | 221 kts | 143° |
| 2026-05-06 19:54 | 51.48033 | -0.73340 | 4007 ft | 214 kts | 117° |
| 2026-05-06 19:54 | 51.47676 | -0.71871 | 3802 ft | 206 kts | 97° |
| 2026-05-06 19:55 | 51.47582 | -0.70403 | 3626 ft | 199 kts | 87° |
| 2026-05-06 19:55 | 51.47606 | -0.69097 | 3528 ft | 190 kts | 83° |
| 2026-05-06 19:55 | 51.47666 | -0.67511 | 3489 ft | 172 kts | 83° |
| 2026-05-06 19:55 | 51.47715 | -0.65688 | 3207 ft | 156 kts | 84° |
| 2026-05-06 19:56 | 51.47731 | -0.64146 | 2960 ft | 145 kts | 85° |
| 2026-05-06 19:56 | 51.47733 | -0.63135 | 2792 ft | 138 kts | 85° |
| 2026-05-06 19:56 | 51.47733 | -0.62038 | 2563 ft | 134 kts | 85° |
| 2026-05-06 19:56 | 51.47733 | -0.60662 | 2260 ft | 132 kts | 85° |
| 2026-05-06 19:57 | 51.47732 | -0.59272 | 2189 ft | 129 kts | 85° |
| 2026-05-06 19:57 | 51.47732 | -0.58152 | 1982 ft | 127 kts | 85° |
| 2026-05-06 19:57 | 51.47733 | -0.57156 | 1693 ft | 130 kts | 85° |
| 2026-05-06 19:57 | 51.47735 | -0.56134 | 1415 ft | 131 kts | 85° |
| 2026-05-06 19:58 | 51.47736 | -0.54801 | 1044 ft | 134 kts | 86° |
| 2026-05-06 19:58 | 51.47729 | -0.53607 | 675 ft | 140 kts | 86° |
| 2026-05-06 19:58 | 51.47733 | -0.52538 | 550 ft | 130 kts | 86° |
| 2026-05-06 19:58 | 51.47739 | -0.51689 | 422 ft | 126 kts | 86° |
| 2026-05-06 19:59 | 51.47745 | -0.50747 | 310 ft | 125 kts | 86° |
| 2026-05-06 19:59 | 51.47749 | -0.49700 | 279 ft | 126 kts | 87° |
| 2026-05-06 19:59 | 51.47750 | -0.48752 | 138 ft | 124 kts | 88° |
| 2026-05-06 19:59 | 51.47741 | -0.47833 | 90 ft | 121 kts | 88° |
| 2026-05-06 20:00 | 51.47749 | -0.47080 | 85 ft | 87 kts | 83° |
| 2026-05-06 20:00 | 51.47762 | -0.46672 | 85 ft | 55 kts | 87° |
| 2026-05-06 20:00 | 51.47755 | -0.46325 | 82 ft | 36 kts | 91° |
| 2026-05-06 20:00 | 51.47664 | -0.46104 | 80 ft | 13 kts | 143° |
| 2026-05-06 20:01 | 51.47655 | -0.46093 | 81 ft | 0 kts | 143° |
| 2026-05-06 20:02 | 51.47642 | -0.46078 | 81 ft | 5 kts | 143° |
| 2026-05-06 20:02 | 51.47610 | -0.46052 | 81 ft | 7 kts | 174° |
| 2026-05-06 20:02 | 51.47580 | -0.46073 | 82 ft | 0 kts | 219° |
| 2026-05-06 20:02 | 51.47578 | -0.46076 | 82 ft | 1 kts | 219° |
| 2026-05-06 20:03 | 51.47570 | -0.46085 | 82 ft | 3 kts | 209° |
| 2026-05-06 20:03 | 51.47546 | -0.46100 | 82 ft | 5 kts | 202° |
| 2026-05-06 20:03 | 51.47517 | -0.46155 | 81 ft | 9 kts | 255° |
| 2026-05-06 20:03 | 51.47513 | -0.46265 | 80 ft | 11 kts | 270° |
| 2026-05-06 20:04 | 51.47514 | -0.46347 | 81 ft | 12 kts | 271° |
| 2026-05-06 20:04 | 51.47496 | -0.46409 | 80 ft | 10 kts | 191° |
| 2026-05-06 20:04 | 51.47483 | -0.46412 | 80 ft | 1 kts | 181° |
| 2026-05-06 20:04 | 51.47465 | -0.46412 | 80 ft | 3 kts | 180° |
| 2026-05-06 20:05 | 51.47435 | -0.46412 | 80 ft | 2 kts | 180° |
| 2026-05-06 20:05 | 51.47429 | -0.46412 | 80 ft | 1 kts | 180° |
| 2026-05-06 20:05 | 51.47420 | -0.46412 | 80 ft | 0 kts | 180° |
| 2026-05-06 20:06 | 51.47423 | -0.46412 | 80 ft | 0 kts | 180° |